createdAt,value
2019-02-02T00:01:26.545Z,3.77
2019-02-02T00:06:31.070Z,3.71
2019-02-02T00:11:35.505Z,3.53
2019-02-02T00:16:39.907Z,3.61
2019-02-02T00:21:44.301Z,3.56
2019-02-02T00:26:48.642Z,3.48
2019-02-02T00:31:53.016Z,3.72
2019-02-02T00:36:59.319Z,3.47
2019-02-02T00:42:03.719Z,3.47
2019-02-02T00:47:08.102Z,3.56
2019-02-02T00:52:12.457Z,3.67
2019-02-02T00:57:16.837Z,3.55
2019-02-02T01:02:21.273Z,3.48
2019-02-02T01:07:25.622Z,3.66
2019-02-02T01:12:30.052Z,3.55
2019-02-02T01:17:34.399Z,3.33
2019-02-02T01:22:38.836Z,3.35
2019-02-02T01:27:43.224Z,3.46
2019-02-02T01:32:47.582Z,3.40
2019-02-02T01:37:53.029Z,3.39
2019-02-02T01:42:57.376Z,3.28
2019-02-02T01:48:01.786Z,3.15
2019-02-02T01:53:06.227Z,3.36
2019-02-02T01:58:16.842Z,3.31
2019-02-02T02:03:16.674Z,3.42
2019-02-02T02:08:21.029Z,3.18
2019-02-02T02:13:25.390Z,3.10
2019-02-02T02:18:29.736Z,3.15
2019-02-02T02:23:34.136Z,3.29
2019-02-02T02:28:38.532Z,3.23
2019-02-02T02:33:42.878Z,3.20
2019-02-02T02:38:47.211Z,3.00
2019-02-02T02:43:51.563Z,3.19
2019-02-02T02:48:56.030Z,2.94
2019-02-02T02:54:00.418Z,3.17
2019-02-02T02:59:05.097Z,2.93
2019-02-02T03:04:09.421Z,3.08
2019-02-02T03:09:13.774Z,3.14
2019-02-02T03:14:18.137Z,3.11
2019-02-02T03:19:22.630Z,3.37
2019-02-02T03:24:27.975Z,3.20
2019-02-02T03:29:32.336Z,3.06
2019-02-02T03:34:36.690Z,2.84
2019-02-02T03:39:41.066Z,2.93
2019-02-02T03:44:45.451Z,2.87
2019-02-02T03:49:49.965Z,2.99
2019-02-02T03:54:54.341Z,2.90
2019-02-02T03:59:58.788Z,3.06
2019-02-02T04:05:03.350Z,2.97
2019-02-02T04:10:10.402Z,2.91
2019-02-02T04:15:16.688Z,2.96
2019-02-02T04:20:22.706Z,2.76
2019-02-02T04:25:27.078Z,2.82
2019-02-02T04:30:31.509Z,2.85
2019-02-02T04:35:35.862Z,2.75
2019-02-02T04:40:40.335Z,2.97
2019-02-02T04:45:44.799Z,2.84
2019-02-02T04:50:49.170Z,2.76
2019-02-02T04:55:53.587Z,2.66
2019-02-02T05:00:58.007Z,2.89
2019-02-02T05:06:02.445Z,3.01
2019-02-02T05:11:06.850Z,2.79
2019-02-02T05:16:11.237Z,2.97
2019-02-02T05:21:15.623Z,2.90
2019-02-02T05:26:19.998Z,2.92
2019-02-02T05:31:24.386Z,2.82
2019-02-02T05:36:28.759Z,2.98
2019-02-02T05:41:33.139Z,2.83
2019-02-02T05:46:37.534Z,2.73
2019-02-02T05:51:43.058Z,2.87
2019-02-02T05:56:47.439Z,2.69
2019-02-02T06:01:51.819Z,2.65
2019-02-02T06:06:56.194Z,2.80
2019-02-02T06:12:01.714Z,2.72
2019-02-02T06:17:06.215Z,2.91
2019-02-02T06:22:10.635Z,2.72
2019-02-02T06:27:15.007Z,2.45
2019-02-02T06:32:19.618Z,2.57
2019-02-02T06:37:24.022Z,2.82
2019-02-02T06:42:28.423Z,3.03
2019-02-02T06:47:32.828Z,2.73
2019-02-02T06:52:37.197Z,2.87
2019-02-02T06:57:41.723Z,2.87
2019-02-02T07:02:46.249Z,2.84
2019-02-02T07:07:50.690Z,2.71
2019-02-02T07:12:56.023Z,2.71
2019-02-02T07:18:00.499Z,2.97
2019-02-02T07:23:05.029Z,2.93
2019-02-02T07:28:09.426Z,2.85
2019-02-02T07:33:13.768Z,2.68
2019-02-02T07:38:18.119Z,2.89
2019-02-02T07:43:22.496Z,2.84
2019-02-02T07:48:26.871Z,2.65
2019-02-02T07:53:31.248Z,2.68
2019-02-02T07:58:35.761Z,2.79
2019-02-02T08:03:40.109Z,2.83
2019-02-02T08:08:44.498Z,2.75
2019-02-02T08:13:48.866Z,2.94
2019-02-02T08:18:53.217Z,2.82
2019-02-02T08:23:57.666Z,2.84
2019-02-02T08:29:02.017Z,2.86
2019-02-02T08:34:06.505Z,2.72
2019-02-02T08:39:11.357Z,3.01
2019-02-02T08:44:15.771Z,3.04
2019-02-02T08:49:20.141Z,2.67
2019-02-02T08:54:24.728Z,3.15
2019-02-02T08:59:29.222Z,3.12
2019-02-02T09:04:33.724Z,3.36
2019-02-02T09:09:38.228Z,3.00
2019-02-02T09:14:42.582Z,3.16
2019-02-02T09:19:46.994Z,3.16
2019-02-02T09:24:51.988Z,3.20
2019-02-02T09:29:56.398Z,3.11
2019-02-02T09:35:00.811Z,3.04
2019-02-02T09:40:11.573Z,3.18
2019-02-02T09:45:18.460Z,3.28
2019-02-02T09:50:25.281Z,3.11
2019-02-02T09:55:29.638Z,3.32
2019-02-02T10:00:34.177Z,3.33
2019-02-02T10:05:38.590Z,3.37
2019-02-02T10:10:42.958Z,3.28
2019-02-02T10:15:47.341Z,3.27
2019-02-02T10:21:03.283Z,3.49
2019-02-02T10:25:57.764Z,3.30
2019-02-02T10:31:02.181Z,3.36
2019-02-02T10:36:06.534Z,3.66
2019-02-02T10:41:11.898Z,3.68
2019-02-02T10:46:16.287Z,3.60
2019-02-02T10:51:20.644Z,3.61
2019-02-02T10:56:25.035Z,3.61
2019-02-02T11:01:29.391Z,3.66
2019-02-02T11:06:33.934Z,3.63
2019-02-02T11:11:38.393Z,3.92
2019-02-02T11:16:43.389Z,4.36
2019-02-02T11:21:47.824Z,3.64
2019-02-02T11:26:52.192Z,3.64
2019-02-02T11:32:02.899Z,3.71
2019-02-02T11:37:02.611Z,3.35
2019-02-02T11:42:06.958Z,3.40
2019-02-02T11:47:11.339Z,3.33
2019-02-02T11:52:15.732Z,3.33
2019-02-02T11:57:20.113Z,3.41
2019-02-02T12:02:24.474Z,3.40
2019-02-02T12:07:28.852Z,3.34
2019-02-02T12:12:33.372Z,3.21
2019-02-02T12:17:37.832Z,3.49
2019-02-02T12:22:42.171Z,3.02
2019-02-02T12:27:46.783Z,3.45
2019-02-02T12:32:51.240Z,3.50
2019-02-02T12:37:55.920Z,3.26
2019-02-02T12:43:00.395Z,3.19
2019-02-02T12:48:06.284Z,3.33
2019-02-02T12:53:10.692Z,3.27
2019-02-02T12:58:15.054Z,3.30
2019-02-02T13:03:19.422Z,3.32
2019-02-02T13:08:23.847Z,3.53
2019-02-02T13:13:28.210Z,3.48
2019-02-02T13:18:32.650Z,3.44
2019-02-02T13:23:37.049Z,3.41
2019-02-02T13:28:41.416Z,3.19
2019-02-02T13:33:45.771Z,3.31
2019-02-02T13:38:51.094Z,3.23
2019-02-02T13:43:55.544Z,3.16
2019-02-02T13:48:59.890Z,3.49
2019-02-02T13:54:04.330Z,3.37
2019-02-02T13:59:08.672Z,3.42
2019-02-02T14:04:13.008Z,3.43
2019-02-02T14:09:17.353Z,3.68
2019-02-02T14:14:21.736Z,3.69
2019-02-02T14:19:26.111Z,3.69
2019-02-02T14:24:30.490Z,3.73
2019-02-02T14:29:34.799Z,3.75
2019-02-02T14:34:40.527Z,3.79
2019-02-02T14:39:45.050Z,3.72
2019-02-02T14:44:49.429Z,3.57
2019-02-02T14:49:53.837Z,3.33
2019-02-02T14:54:58.234Z,3.12
2019-02-02T15:00:02.611Z,3.00
2019-02-02T15:05:10.372Z,3.06
2019-02-02T15:10:15.442Z,3.23
2019-02-02T15:15:19.936Z,3.27
2019-02-02T15:20:29.978Z,3.27
2019-02-02T15:25:34.360Z,3.35
2019-02-02T15:30:38.755Z,3.24
2019-02-02T15:35:43.149Z,3.34
2019-02-02T15:40:58.444Z,3.27
2019-02-02T15:45:53.622Z,3.26
2019-02-02T15:50:58.009Z,3.24
2019-02-02T15:56:02.428Z,3.24
2019-02-02T16:01:06.847Z,3.20
2019-02-02T16:06:11.210Z,3.13
2019-02-02T16:11:15.583Z,3.31
2019-02-02T16:16:19.944Z,3.21
2019-02-02T16:21:24.333Z,3.20
2019-02-02T16:26:28.714Z,3.16
2019-02-02T16:31:33.127Z,3.38
2019-02-02T16:36:37.521Z,3.33
2019-02-02T16:41:41.904Z,3.42
2019-02-02T16:46:46.296Z,3.18
2019-02-02T16:51:50.643Z,3.23
2019-02-02T16:56:55.026Z,3.05
2019-02-02T17:01:59.385Z,3.09
2019-02-02T17:07:03.758Z,3.25
2019-02-02T17:12:08.180Z,3.24
2019-02-02T17:17:13.502Z,3.18
2019-02-02T17:22:17.857Z,2.98
2019-02-02T17:27:22.225Z,3.12
2019-02-02T17:32:26.582Z,3.16
2019-02-02T17:37:31.041Z,3.31
2019-02-02T17:42:35.490Z,3.34
2019-02-02T17:47:39.898Z,3.27
2019-02-02T17:52:44.223Z,3.23
2019-02-02T17:57:48.598Z,3.16
2019-02-02T18:02:53.051Z,3.56
2019-02-02T18:07:57.430Z,3.38
2019-02-02T18:13:01.800Z,3.40
2019-02-02T18:18:06.355Z,3.36
2019-02-02T18:23:10.703Z,3.34
2019-02-02T18:28:15.077Z,3.36
2019-02-02T18:33:19.435Z,3.80
2019-02-02T18:38:24.864Z,3.38
2019-02-02T18:43:29.208Z,3.38
2019-02-02T18:48:33.753Z,3.38
2019-02-02T18:53:38.172Z,3.51
2019-02-02T18:58:42.579Z,3.58
2019-02-02T19:03:46.948Z,3.37
2019-02-02T19:08:51.300Z,3.35
2019-02-02T19:13:55.649Z,3.52
2019-02-02T19:19:00.036Z,3.56
2019-02-02T19:24:04.653Z,3.53
2019-02-02T19:29:09.117Z,3.38
2019-02-02T19:34:13.508Z,3.33
2019-02-02T19:39:17.893Z,3.52
2019-02-02T19:44:22.320Z,3.39
2019-02-02T19:49:26.694Z,3.36
2019-02-02T19:54:31.053Z,3.64
2019-02-02T19:59:35.399Z,3.48
2019-02-02T20:04:39.758Z,3.36
2019-02-02T20:09:44.119Z,3.16
2019-02-02T20:14:49.120Z,3.18
2019-02-02T20:19:53.479Z,3.21
2019-02-02T20:24:57.928Z,3.42
2019-02-02T20:30:02.306Z,3.52
2019-02-02T20:35:09.782Z,3.36
2019-02-02T20:40:22.418Z,3.47
2019-02-02T20:45:32.425Z,3.57
2019-02-02T20:50:36.819Z,3.36
2019-02-02T20:55:43.546Z,3.28
2019-02-02T21:00:48.881Z,3.42
2019-02-02T21:05:54.051Z,3.39
2019-02-02T21:10:58.420Z,3.50
2019-02-02T21:16:02.962Z,3.38
2019-02-02T21:21:07.398Z,3.45
2019-02-02T21:26:11.881Z,3.23
2019-02-02T21:31:16.244Z,3.32
2019-02-02T21:36:20.648Z,3.24
2019-02-02T21:41:25.129Z,3.33
2019-02-02T21:46:30.482Z,3.09
2019-02-02T21:51:35.224Z,3.27
2019-02-02T21:56:39.612Z,3.42
2019-02-02T22:01:44.076Z,3.06
2019-02-02T22:06:48.640Z,3.28
2019-02-02T22:11:53.014Z,3.15
2019-02-02T22:17:04.571Z,3.25
2019-02-02T22:22:08.877Z,3.05
2019-02-02T22:27:13.905Z,2.88
2019-02-02T22:32:18.389Z,3.25
2019-02-02T22:37:22.823Z,3.09
2019-02-02T22:42:27.192Z,3.07
2019-02-02T22:47:31.617Z,3.03
2019-02-02T22:52:36.357Z,3.01
2019-02-02T22:57:41.526Z,3.08
2019-02-02T23:02:45.899Z,2.81
2019-02-02T23:07:53.777Z,2.96
2019-02-02T23:13:04.027Z,3.18
2019-02-02T23:18:08.395Z,3.00
2019-02-02T23:23:12.833Z,2.82
2019-02-02T23:28:17.490Z,2.86
2019-02-02T23:33:21.832Z,2.94
2019-02-02T23:38:26.257Z,2.76
2019-02-02T23:43:30.625Z,2.78
2019-02-02T23:48:34.993Z,2.71
2019-02-02T23:53:39.344Z,2.68
2019-02-02T23:58:43.685Z,2.72
